Time;durP1;ratioP1;P1;durP2;ratioP2;P2;SDS_P1;SDS_P2;PMS_P1;PMS_P2;Temp;Humidity;BMP_temperature;BMP_pressure;BME280_temperature;BME280_humidity;BME280_pressure;Samples;Min_cycle;Max_cycle;Signal;HPM_P1;HPM_P2
2021/01/25 00:00:17;;;;;;;3.87;3.20;;;0.50;99.90;;;;;;6139865;23;20167;-89
2021/01/25 00:02:43;;;;;;;4.23;3.77;;;0.50;99.90;;;;;;6137964;23;20172;-89
2021/01/25 00:05:09;;;;;;;5.27;3.70;;;0.60;99.90;;;;;;6139171;23;20670;-88
2021/01/25 00:07:35;;;;;;;3.93;2.97;;;0.50;99.90;;;;;;6138962;23;20458;-89
2021/01/25 00:10:02;;;;;;;4.17;3.10;;;0.50;99.90;;;;;;6139646;23;20687;-90
2021/01/25 00:12:28;;;;;;;4.30;3.50;;;0.50;99.90;;;;;;6139509;23;20426;-88
2021/01/25 00:14:54;;;;;;;4.17;3.60;;;0.50;99.90;;;;;;6140527;23;20737;-89
2021/01/25 00:17:20;;;;;;;5.37;4.20;;;0.50;99.90;;;;;;6138864;23;20700;-91
2021/01/25 00:19:46;;;;;;;5.33;4.37;;;0.50;99.90;;;;;;6137651;23;20518;-89
2021/01/25 00:22:12;;;;;;;5.17;4.60;;;0.50;99.90;;;;;;6137886;23;20164;-88
2021/01/25 00:24:37;;;;;;;4.70;3.93;;;0.50;99.90;;;;;;6139173;23;20164;-89
2021/01/25 00:27:03;;;;;;;7.27;4.83;;;0.30;99.90;;;;;;6138830;23;20360;-89
2021/01/25 00:29:29;;;;;;;5.07;4.17;;;0.30;99.90;;;;;;6137831;23;20505;-90
2021/01/25 00:31:55;;;;;;;5.57;4.40;;;0.20;99.90;;;;;;6138932;23;20828;-88
2021/01/25 00:34:21;;;;;;;5.80;4.57;;;0.20;99.90;;;;;;6139674;23;20666;-88
2021/01/25 00:36:47;;;;;;;6.87;5.20;;;0.10;99.90;;;;;;6138406;23;20175;-89
2021/01/25 00:39:13;;;;;;;5.30;4.77;;;0.00;99.90;;;;;;6138502;23;20392;-89
2021/01/25 00:41:38;;;;;;;5.20;4.40;;;0.00;99.90;;;;;;6137238;23;20164;-90
2021/01/25 00:44:04;;;;;;;6.27;4.90;;;0.00;99.90;;;;;;6133851;23;20296;-89
2021/01/25 00:46:30;;;;;;;9.27;5.33;;;-0.10;99.90;;;;;;6137767;23;20164;-89
2021/01/25 00:48:56;;;;;;;6.83;5.30;;;-0.20;99.90;;;;;;6137553;23;20414;-89
2021/01/25 00:51:21;;;;;;;10.33;5.77;;;-0.20;99.90;;;;;;6138310;23;20586;-89
2021/01/25 00:53:47;;;;;;;8.20;5.50;;;-0.30;99.90;;;;;;6138849;23;20204;-88
2021/01/25 00:56:13;;;;;;;5.73;4.37;;;-0.30;99.90;;;;;;6138420;23;20636;-87
2021/01/25 00:58:39;;;;;;;5.50;5.00;;;-0.30;99.90;;;;;;6137474;23;20168;-89
2021/01/25 01:01:05;;;;;;;7.50;5.10;;;-0.30;99.90;;;;;;6134888;23;20491;-88
2021/01/25 01:03:31;;;;;;;7.97;5.10;;;-0.20;99.90;;;;;;6140308;23;20425;-89
2021/01/25 01:05:57;;;;;;;6.20;4.90;;;-0.30;99.90;;;;;;6138782;23;20396;-88
2021/01/25 01:08:22;;;;;;;4.73;4.20;;;-0.30;99.90;;;;;;6137203;23;20172;-87
2021/01/25 01:10:48;;;;;;;6.97;5.30;;;-0.30;99.90;;;;;;6138483;23;20480;-89
2021/01/25 01:13:14;;;;;;;7.27;4.47;;;-0.30;99.90;;;;;;6136317;23;20238;-88
2021/01/25 01:15:39;;;;;;;8.50;5.20;;;-0.30;99.90;;;;;;6138097;23;20176;-89
2021/01/25 01:18:05;;;;;;;5.50;4.77;;;-0.20;99.90;;;;;;6138541;23;20251;-88
2021/01/25 01:20:31;;;;;;;5.83;4.93;;;-0.20;99.90;;;;;;6137396;23;20620;-88
2021/01/25 01:22:59;;;;;;;5.97;4.57;;;-0.20;99.90;;;;;;6139358;23;20175;-88
2021/01/25 01:25:24;;;;;;;5.80;5.27;;;-0.10;99.90;;;;;;6135614;23;20400;-88
2021/01/25 01:27:50;;;;;;;6.43;5.40;;;-0.10;99.90;;;;;;6139015;23;20403;-88
2021/01/25 01:30:16;;;;;;;6.10;5.40;;;-0.10;99.90;;;;;;6139193;23;20511;-86
2021/01/25 01:32:42;;;;;;;7.17;5.70;;;0.00;99.90;;;;;;6134862;23;20172;-87
2021/01/25 01:35:08;;;;;;;5.87;5.30;;;-0.10;99.90;;;;;;6138388;23;20449;-88
2021/01/25 01:37:35;;;;;;;6.17;5.37;;;-0.10;99.90;;;;;;6140297;23;20745;-88
2021/01/25 01:40:04;;;;;;;8.27;5.70;;;-0.20;99.90;;;;;;6139232;23;20491;-87
2021/01/25 01:42:29;;;;;;;6.63;5.17;;;-0.30;99.90;;;;;;6139139;23;20396;-88
2021/01/25 01:44:55;;;;;;;7.37;5.43;;;-0.30;99.90;;;;;;6140329;23;20418;-87
2021/01/25 01:47:22;;;;;;;7.57;4.40;;;-0.20;99.90;;;;;;6141392;23;20161;-87
2021/01/25 01:49:50;;;;;;;5.77;5.17;;;-0.20;99.90;;;;;;6139530;23;20648;-87
2021/01/25 01:52:16;;;;;;;6.17;5.47;;;-0.20;99.90;;;;;;6138562;23;20415;-88
2021/01/25 01:54:43;;;;;;;7.50;4.50;;;-0.30;99.90;;;;;;6140687;23;20544;-88
2021/01/25 01:57:09;;;;;;;5.73;4.60;;;-0.30;99.90;;;;;;6144434;23;20426;-88
2021/01/25 01:59:35;;;;;;;5.83;5.23;;;-0.20;99.90;;;;;;6141569;23;20408;-88
2021/01/25 02:02:00;;;;;;;7.33;4.57;;;-0.20;99.90;;;;;;6141090;23;20404;-89
2021/01/25 02:04:27;;;;;;;6.57;4.50;;;-0.20;99.90;;;;;;6144496;23;20160;-88
2021/01/25 02:06:55;;;;;;;6.20;5.10;;;-0.20;99.90;;;;;;6143539;23;20172;-89
2021/01/25 02:09:22;;;;;;;5.40;4.23;;;-0.30;99.90;;;;;;6143995;23;20418;-89
2021/01/25 02:11:48;;;;;;;4.77;4.30;;;-0.20;99.90;;;;;;6143148;23;20404;-87
2021/01/25 02:14:14;;;;;;;4.93;4.23;;;-0.20;99.90;;;;;;6143890;23;20876;-88
2021/01/25 02:16:41;;;;;;;5.53;4.30;;;-0.10;99.90;;;;;;6144519;23;20172;-89
2021/01/25 02:19:30;;;;;;;5.10;4.43;;;-0.20;99.90;;;;;;6143455;23;20399;-88
2021/01/25 02:22:30;;;;;;;4.77;3.90;;;-0.20;99.90;;;;;;6123541;23;20407;-88
2021/01/25 02:25:42;;;;;;;3.80;3.50;;;0.00;99.90;;;;;;6089455;23;20395;-87
2021/01/25 02:28:08;;;;;;;4.47;4.07;;;0.00;99.90;;;;;;6097762;23;20422;-88
2021/01/25 02:30:34;;;;;;;4.50;3.80;;;0.20;99.90;;;;;;6143098;23;20423;-88
2021/01/25 02:33:01;;;;;;;4.20;3.80;;;0.20;99.90;;;;;;6141213;23;20170;-88
2021/01/25 02:35:28;;;;;;;6.30;3.77;;;0.30;99.90;;;;;;6142566;23;20447;-88
2021/01/25 02:37:55;;;;;;;5.13;3.60;;;0.30;99.90;;;;;;6143532;23;20557;-88
2021/01/25 02:40:23;;;;;;;3.77;3.33;;;0.30;99.90;;;;;;6141810;23;20454;-89
2021/01/25 02:42:53;;;;;;;3.70;3.40;;;0.30;99.90;;;;;;6142545;23;20485;-88
2021/01/25 02:45:21;;;;;;;5.13;3.57;;;0.30;99.90;;;;;;6143479;23;20407;-87
2021/01/25 02:47:47;;;;;;;6.60;3.80;;;0.30;99.90;;;;;;6142487;23;20403;-88
2021/01/25 02:50:13;;;;;;;8.30;4.20;;;0.40;99.90;;;;;;6143450;23;20403;-89
2021/01/25 02:52:39;;;;;;;7.00;3.90;;;0.50;99.90;;;;;;6143767;23;20486;-88
2021/01/25 02:55:05;;;;;;;6.73;4.60;;;0.50;99.90;;;;;;6143025;23;20581;-88
2021/01/25 02:57:32;;;;;;;6.77;3.90;;;0.50;99.90;;;;;;6142269;23;20808;-88
2021/01/25 03:00:00;;;;;;;6.30;4.30;;;0.60;99.90;;;;;;6143540;23;20418;-88
2021/01/25 03:02:26;;;;;;;4.40;4.00;;;0.60;99.90;;;;;;6143384;23;20471;-88
2021/01/25 03:04:52;;;;;;;4.73;3.73;;;0.60;99.90;;;;;;6143040;23;20551;-87
2021/01/25 03:07:18;;;;;;;4.27;3.87;;;0.50;99.90;;;;;;6143395;23;20396;-89
2021/01/25 03:09:44;;;;;;;4.37;3.87;;;0.50;99.90;;;;;;6143496;23;20412;-88
2021/01/25 03:12:10;;;;;;;4.87;4.10;;;0.50;99.90;;;;;;6143304;23;20391;-88
2021/01/25 03:14:43;;;;;;;7.27;3.80;;;0.50;99.90;;;;;;6143317;23;20196;-87
2021/01/25 03:17:09;;;;;;;4.87;4.37;;;0.50;99.90;;;;;;6144544;23;20877;-88
2021/01/25 03:19:34;;;;;;;5.17;4.07;;;0.50;99.90;;;;;;6143019;23;20490;-88
2021/01/25 03:22:00;;;;;;;5.50;4.90;;;0.50;99.90;;;;;;6143895;23;20590;-88
2021/01/25 03:24:25;;;;;;;5.70;5.20;;;0.50;99.90;;;;;;6143331;23;20449;-88
2021/01/25 03:26:51;;;;;;;6.80;5.00;;;0.40;99.90;;;;;;6143008;23;20652;-87
2021/01/25 03:29:17;;;;;;;6.67;5.40;;;0.30;99.90;;;;;;6143588;23;20652;-88
2021/01/25 03:31:42;;;;;;;7.93;6.00;;;0.20;99.90;;;;;;6143107;23;20174;-88
2021/01/25 03:34:08;;;;;;;7.53;5.30;;;0.20;99.90;;;;;;6142681;23;20214;-88
2021/01/25 03:36:38;;;;;;;6.37;5.63;;;0.10;99.90;;;;;;6144338;23;20255;-91
2021/01/25 03:39:05;;;;;;;6.60;5.70;;;0.00;99.90;;;;;;6141654;23;20404;-90
2021/01/25 03:41:31;;;;;;;5.13;4.63;;;0.00;99.90;;;;;;6143160;23;20408;-89
2021/01/25 03:43:57;;;;;;;5.37;4.87;;;0.10;99.90;;;;;;6143130;23;20415;-90
2021/01/25 03:46:22;;;;;;;7.00;5.93;;;0.10;99.90;;;;;;6143437;23;20165;-89
2021/01/25 03:48:48;;;;;;;7.97;5.43;;;0.10;99.90;;;;;;6143005;23;20172;-89
2021/01/25 03:51:14;;;;;;;5.33;4.80;;;0.20;99.90;;;;;;6142713;23;20195;-89
2021/01/25 03:53:40;;;;;;;6.57;5.97;;;0.20;99.90;;;;;;6142878;23;20354;-89
2021/01/25 03:56:06;;;;;;;5.23;4.73;;;0.20;99.90;;;;;;6143265;23;20176;-90
2021/01/25 03:58:31;;;;;;;6.60;5.50;;;0.20;99.90;;;;;;6142716;23;20782;-90
2021/01/25 04:00:57;;;;;;;5.60;5.00;;;0.20;99.90;;;;;;6141483;23;20705;-89
2021/01/25 04:03:23;;;;;;;8.50;5.80;;;0.20;99.90;;;;;;6142339;23;20200;-90
2021/01/25 04:05:49;;;;;;;6.17;4.80;;;0.20;99.90;;;;;;6143030;23;20169;-89
2021/01/25 04:08:15;;;;;;;7.30;5.50;;;0.30;99.90;;;;;;6142406;23;20219;-89
2021/01/25 04:10:41;;;;;;;5.53;5.03;;;0.30;99.90;;;;;;6142053;23;20499;-89
2021/01/25 04:13:06;;;;;;;6.40;5.40;;;0.30;99.90;;;;;;6144616;23;20788;-88
2021/01/25 04:15:32;;;;;;;7.30;6.00;;;0.30;99.90;;;;;;6142203;23;20844;-89
2021/01/25 04:17:59;;;;;;;6.70;5.50;;;0.30;99.90;;;;;;6142930;23;20767;-90
2021/01/25 04:20:24;;;;;;;6.97;5.40;;;0.30;99.90;;;;;;6142021;23;20905;-90
2021/01/25 04:22:50;;;;;;;6.73;6.03;;;0.40;99.90;;;;;;6142455;23;20412;-89
2021/01/25 04:25:16;;;;;;;6.10;5.10;;;0.40;99.90;;;;;;6143443;23;20590;-89
2021/01/25 04:27:41;;;;;;;8.30;5.33;;;0.30;99.90;;;;;;6143186;23;20225;-89
2021/01/25 04:30:09;;;;;;;6.93;6.20;;;0.30;99.90;;;;;;6141713;23;20163;-88
2021/01/25 04:32:37;;;;;;;5.73;5.17;;;0.30;99.90;;;;;;6143637;23;20196;-88
2021/01/25 04:35:05;;;;;;;5.73;5.20;;;0.30;99.90;;;;;;6142861;23;20447;-89
2021/01/25 04:37:31;;;;;;;7.50;5.70;;;0.30;99.90;;;;;;6141609;23;20406;-89
2021/01/25 04:39:56;;;;;;;8.60;6.10;;;0.40;99.90;;;;;;6141468;23;20757;-89
2021/01/25 04:42:22;;;;;;;6.10;5.37;;;0.40;99.90;;;;;;6142289;23;20415;-88
2021/01/25 04:44:49;;;;;;;7.67;6.13;;;0.50;99.90;;;;;;6142501;23;20168;-88
2021/01/25 04:47:15;;;;;;;6.90;5.90;;;0.50;99.90;;;;;;6143251;23;20400;-89
2021/01/25 04:49:42;;;;;;;8.80;6.27;;;0.50;99.90;;;;;;6142153;23;20404;-88
2021/01/25 04:52:10;;;;;;;7.00;6.07;;;0.50;99.90;;;;;;6142610;23;20722;-89
2021/01/25 04:54:37;;;;;;;6.30;5.47;;;0.50;99.90;;;;;;6140433;23;20795;-89
2021/01/25 04:57:03;;;;;;;7.77;6.60;;;0.50;99.90;;;;;;6142856;23;20400;-89
2021/01/25 04:59:29;;;;;;;8.27;6.70;;;0.50;99.90;;;;;;6143008;23;20754;-89
2021/01/25 05:01:56;;;;;;;6.67;5.33;;;0.50;99.90;;;;;;6141156;23;20467;-88
2021/01/25 05:04:21;;;;;;;7.87;6.70;;;0.50;99.90;;;;;;6142124;23;20473;-89
2021/01/25 05:06:47;;;;;;;8.43;7.37;;;0.50;99.90;;;;;;6143940;23;20399;-89
2021/01/25 05:09:13;;;;;;;8.73;6.50;;;0.50;99.90;;;;;;6143386;23;20492;-89
2021/01/25 05:11:38;;;;;;;6.40;5.90;;;0.60;99.90;;;;;;6144410;23;20195;-87
2021/01/25 05:14:06;;;;;;;7.57;6.60;;;0.60;99.90;;;;;;6145801;23;20292;-89
2021/01/25 05:16:33;;;;;;;9.47;6.47;;;0.50;99.90;;;;;;6146183;23;20176;-89
2021/01/25 05:19:03;;;;;;;8.40;6.73;;;0.50;99.90;;;;;;6146750;23;20515;-88
2021/01/25 05:21:43;;;;;;;8.43;6.97;;;0.50;99.90;;;;;;6145894;23;20407;-83
2021/01/25 05:24:13;;;;;;;7.13;6.40;;;0.50;99.90;;;;;;6144018;23;20415;-82
2021/01/25 05:26:58;;;;;;;8.37;6.43;;;0.60;99.90;;;;;;6144458;23;20715;-83
2021/01/25 05:29:25;;;;;;;7.67;6.67;;;0.70;99.90;;;;;;6145216;23;20407;-84
2021/01/25 05:31:51;;;;;;;8.60;7.33;;;0.70;99.90;;;;;;6144266;23;20408;-85
2021/01/25 05:34:18;;;;;;;8.37;6.70;;;0.70;99.90;;;;;;6144286;23;20690;-86
2021/01/25 05:36:44;;;;;;;7.63;6.67;;;0.70;99.90;;;;;;6144561;23;20693;-86
2021/01/25 05:39:12;;;;;;;8.53;7.67;;;0.70;99.90;;;;;;6145856;23;20969;-85
2021/01/25 05:41:38;;;;;;;7.20;6.50;;;0.70;99.90;;;;;;6145789;23;20399;-89
2021/01/25 05:44:14;;;;;;;8.43;7.53;;;0.80;99.90;;;;;;6137126;23;20434;-87
2021/01/25 05:46:47;;;;;;;7.00;6.30;;;0.70;99.90;;;;;;6145964;23;20883;-88
2021/01/25 05:49:13;;;;;;;10.27;7.40;;;0.70;99.90;;;;;;6122149;23;20410;-89
2021/01/25 05:51:42;;;;;;;15.03;9.17;;;0.70;99.90;;;;;;6144940;23;20475;-87
2021/01/25 05:54:08;;;;;;;11.67;9.60;;;0.60;99.90;;;;;;6122115;23;20192;-89
2021/01/25 05:56:34;;;;;;;20.30;16.50;;;0.60;99.90;;;;;;6145409;23;20403;-90
2021/01/25 05:59:06;;;;;;;21.27;14.40;;;0.60;99.90;;;;;;6145932;23;20458;-87
2021/01/25 06:01:33;;;;;;;10.00;8.93;;;0.70;99.90;;;;;;6172754;23;20168;-88
2021/01/25 06:04:03;;;;;;;8.97;7.13;;;0.70;99.90;;;;;;6146108;23;20480;-93
2021/01/25 06:06:53;;;;;;;9.93;8.50;;;0.70;99.90;;;;;;6147721;23;20188;-91
2021/01/25 06:09:51;;;;;;;12.60;9.73;;;0.70;99.90;;;;;;6147456;23;20865;-92
2021/01/25 06:12:22;;;;;;;9.77;7.50;;;0.70;99.90;;;;;;6146530;23;20405;-91
2021/01/25 06:14:54;;;;;;;8.47;7.40;;;0.80;99.90;;;;;;6146373;23;20443;-89
2021/01/25 06:17:22;;;;;;;7.87;7.07;;;0.70;99.90;;;;;;6145641;23;20395;-90
2021/01/25 06:19:49;;;;;;;10.27;8.50;;;0.70;99.90;;;;;;6145851;23;20416;-90
2021/01/25 06:22:16;;;;;;;9.57;7.80;;;0.60;99.90;;;;;;6144846;23;20399;-88
2021/01/25 06:24:42;;;;;;;161.73;120.50;;;0.60;99.90;;;;;;6143179;23;20447;-88
2021/01/25 06:27:18;;;;;;;37.93;31.93;;;0.60;99.90;;;;;;6137980;23;20797;-88
2021/01/25 06:29:44;;;;;;;26.50;20.20;;;0.60;99.90;;;;;;6142366;23;20427;-88
2021/01/25 06:32:10;;;;;;;22.97;14.80;;;0.60;99.90;;;;;;6143298;23;20423;-90
2021/01/25 06:34:37;;;;;;;11.73;8.47;;;0.60;99.90;;;;;;6143325;23;20439;-89
2021/01/25 06:37:08;;;;;;;9.40;8.40;;;0.60;99.90;;;;;;6144139;23;20403;-90
2021/01/25 06:39:34;;;;;;;9.60;7.97;;;0.60;99.90;;;;;;6144555;23;20418;-89
2021/01/25 06:42:02;;;;;;;10.77;8.10;;;0.50;99.90;;;;;;6143707;23;20404;-89
2021/01/25 06:44:30;;;;;;;10.13;8.47;;;0.40;99.90;;;;;;6144010;23;20523;-90
2021/01/25 06:46:58;;;;;;;10.70;7.87;;;0.30;99.90;;;;;;6143447;23;20418;-90
2021/01/25 06:49:25;;;;;;;10.63;9.03;;;0.20;99.90;;;;;;6143752;23;20792;-89
2021/01/25 06:51:53;;;;;;;11.53;9.37;;;0.20;99.90;;;;;;6143721;23;20407;-89
2021/01/25 06:54:22;;;;;;;12.13;9.23;;;0.20;99.90;;;;;;6143879;23;20578;-89
2021/01/25 06:56:53;;;;;;;12.03;9.60;;;0.10;99.90;;;;;;6143565;23;20436;-89
2021/01/25 06:59:28;;;;;;;12.30;9.90;;;0.10;99.90;;;;;;6143550;23;20474;-90
2021/01/25 07:01:55;;;;;;;10.70;9.60;;;0.10;99.90;;;;;;6142418;23;20497;-89
2021/01/25 07:04:23;;;;;;;10.60;9.17;;;0.20;99.90;;;;;;6143591;23;20454;-89
2021/01/25 07:06:54;;;;;;;10.47;9.10;;;0.20;99.90;;;;;;6144039;23;21233;-89
2021/01/25 07:09:31;;;;;;;12.07;9.33;;;0.30;99.90;;;;;;6139150;23;20391;-90
2021/01/25 07:12:02;;;;;;;14.00;10.97;;;0.30;99.90;;;;;;6143042;23;20659;-89
2021/01/25 07:14:47;;;;;;;13.43;10.27;;;0.30;99.90;;;;;;6143862;23;20537;-89
2021/01/25 07:17:13;;;;;;;14.93;10.97;;;0.20;99.90;;;;;;6143106;23;20490;-89
2021/01/25 07:19:38;;;;;;;11.07;9.47;;;0.30;99.90;;;;;;6142814;23;20748;-89
2021/01/25 07:22:05;;;;;;;10.90;9.80;;;0.30;99.90;;;;;;6141543;23;20462;-89
2021/01/25 07:24:31;;;;;;;11.10;9.20;;;0.30;99.90;;;;;;6143012;23;20164;-89
2021/01/25 07:27:00;;;;;;;11.00;9.60;;;0.50;99.90;;;;;;6143552;23;20986;-88
2021/01/25 07:29:27;;;;;;;11.20;8.50;;;0.60;99.90;;;;;;6143804;23;20585;-89
2021/01/25 07:31:54;;;;;;;13.90;9.70;;;0.60;99.90;;;;;;6143548;23;20400;-89
2021/01/25 07:34:21;;;;;;;13.27;9.53;;;0.60;99.90;;;;;;6142378;23;20435;-89
2021/01/25 07:36:47;;;;;;;10.20;8.57;;;0.50;99.90;;;;;;6118683;23;20821;-90
2021/01/25 07:39:15;;;;;;;13.83;10.13;;;0.70;99.90;;;;;;6142272;23;20387;-90
2021/01/25 07:41:42;;;;;;;14.70;12.50;;;0.80;99.90;;;;;;6141683;23;20411;-88
2021/01/25 07:44:09;;;;;;;18.03;14.70;;;0.90;99.90;;;;;;6142685;23;20443;-89
2021/01/25 07:46:36;;;;;;;13.67;11.60;;;1.00;99.90;;;;;;6142502;23;20406;-88
2021/01/25 07:49:02;;;;;;;14.23;11.80;;;1.00;99.90;;;;;;6143286;23;20470;-89
2021/01/25 07:51:29;;;;;;;13.03;10.33;;;1.00;99.90;;;;;;6138823;23;21379;-90
2021/01/25 07:53:56;;;;;;;10.67;9.33;;;1.00;99.90;;;;;;6141706;23;20447;-88
2021/01/25 07:56:24;;;;;;;10.73;8.80;;;1.10;99.90;;;;;;6143208;23;20510;-86
2021/01/25 07:59:02;;;;;;;26.40;22.17;;;1.10;99.90;;;;;;6143095;23;20892;-87
2021/01/25 08:01:30;;;;;;;11.43;10.23;;;1.10;99.90;;;;;;6140986;23;20655;-87
2021/01/25 08:04:03;;;;;;;14.70;13.10;;;1.20;99.90;;;;;;6142464;23;20410;-88
2021/01/25 08:06:34;;;;;;;14.20;12.27;;;1.30;99.90;;;;;;6142445;23;20407;-85
2021/01/25 08:09:03;;;;;;;43.27;31.57;;;1.30;99.90;;;;;;6143416;23;20483;-87
2021/01/25 08:11:30;;;;;;;9.87;8.80;;;1.20;99.90;;;;;;6142604;23;20410;-84
2021/01/25 08:14:28;;;;;;;9.87;8.53;;;1.20;99.90;;;;;;6142337;23;20864;-86
2021/01/25 08:17:30;;;;;;;9.93;8.87;;;1.10;99.90;;;;;;6142556;23;20536;-86
2021/01/25 08:20:02;;;;;;;13.93;7.27;;;1.20;99.90;;;;;;6142504;23;20779;-86
2021/01/25 08:22:47;;;;;;;13.93;8.20;;;1.20;99.90;;;;;;6141319;23;20399;-82
2021/01/25 08:25:20;;;;;;;10.50;7.60;;;1.10;99.90;;;;;;6141930;23;20395;-85
2021/01/25 08:28:10;;;;;;;9.30;7.70;;;1.10;99.90;;;;;;6144839;23;20432;-87
2021/01/25 08:30:42;;;;;;;8.20;7.37;;;1.10;99.90;;;;;;6146219;23;20400;-85
2021/01/25 08:33:10;;;;;;;8.87;7.07;;;1.20;99.90;;;;;;6146219;23;20407;-84
2021/01/25 08:35:54;;;;;;;13.83;8.87;;;1.20;99.90;;;;;;6143387;23;20517;-84
2021/01/25 08:38:47;;;;;;;11.07;8.70;;;1.10;99.90;;;;;;6147052;23;20384;-87
2021/01/25 08:41:32;;;;;;;8.20;7.30;;;1.10;99.90;;;;;;6141337;23;20400;-86
2021/01/25 08:44:09;;;;;;;9.87;7.50;;;1.10;99.90;;;;;;6143537;23;20439;-87
2021/01/25 08:46:38;;;;;;;8.30;7.50;;;1.20;99.90;;;;;;6141998;23;20483;-85
2021/01/25 08:49:35;;;;;;;11.53;9.30;;;1.40;99.90;;;;;;6142493;23;20439;-88
2021/01/25 08:52:01;;;;;;;9.73;8.43;;;1.50;99.90;;;;;;6140396;23;20391;-84
2021/01/25 08:54:31;;;;;;;10.10;8.23;;;1.60;99.90;;;;;;6141746;23;20431;-84
2021/01/25 08:56:57;;;;;;;10.93;8.60;;;1.80;99.90;;;;;;6141870;23;20435;-84
2021/01/25 08:59:37;;;;;;;10.77;9.70;;;1.90;99.90;;;;;;6141969;23;20411;-84
2021/01/25 09:02:22;;;;;;;8.63;7.83;;;2.10;99.90;;;;;;6141083;23;20396;-86
2021/01/25 09:04:52;;;;;;;9.40;8.27;;;2.30;99.90;;;;;;6141803;23;20884;-84
2021/01/25 09:07:21;;;;;;;9.73;8.57;;;2.10;99.90;;;;;;6140784;23;20434;-83
2021/01/25 09:09:47;;;;;;;8.60;7.80;;;2.20;99.90;;;;;;6141480;23;20854;-83
2021/01/25 09:12:14;;;;;;;9.90;7.37;;;2.30;99.90;;;;;;6141540;23;20435;-83
2021/01/25 09:14:41;;;;;;;8.13;7.43;;;2.40;99.90;;;;;;6140762;23;20530;-83
2021/01/25 09:17:11;;;;;;;9.10;7.77;;;2.40;99.90;;;;;;6135929;23;20407;-83
2021/01/25 09:19:38;;;;;;;9.23;6.70;;;2.50;99.90;;;;;;6140802;23;20420;-83
2021/01/25 09:22:05;;;;;;;7.60;6.80;;;2.40;99.90;;;;;;6141399;23;20434;-83
2021/01/25 09:24:31;;;;;;;8.97;6.73;;;2.30;99.90;;;;;;6142459;23;20392;-83
2021/01/25 09:26:57;;;;;;;7.90;6.50;;;2.30;99.90;;;;;;6142898;23;20407;-83
2021/01/25 09:29:22;;;;;;;7.90;7.10;;;2.40;99.90;;;;;;6142884;23;20164;-83
2021/01/25 09:31:48;;;;;;;8.30;7.30;;;2.40;99.90;;;;;;6142825;23;20299;-82
2021/01/25 09:34:14;;;;;;;9.50;7.90;;;2.40;99.90;;;;;;6141761;23;20514;-85
2021/01/25 09:36:39;;;;;;;8.53;7.73;;;2.90;99.90;;;;;;6142099;23;20172;-83
2021/01/25 09:39:06;;;;;;;8.83;7.93;;;2.90;99.90;;;;;;6142663;23;20522;-83
2021/01/25 09:41:32;;;;;;;9.97;7.87;;;2.80;99.90;;;;;;6141840;23;20480;-83
2021/01/25 09:43:58;;;;;;;8.83;7.93;;;2.80;99.90;;;;;;6142776;23;20748;-83
2021/01/25 09:46:24;;;;;;;10.17;9.03;;;2.70;99.90;;;;;;6142425;23;20411;-83
2021/01/25 09:48:49;;;;;;;8.97;7.40;;;2.90;99.90;;;;;;6142791;23;20176;-83
2021/01/25 09:51:15;;;;;;;10.60;8.53;;;2.90;99.90;;;;;;6142353;23;20168;-83
2021/01/25 09:53:41;;;;;;;10.40;9.40;;;3.10;99.90;;;;;;6141432;23;20185;-83
2021/01/25 09:56:07;;;;;;;9.40;8.40;;;3.10;99.90;;;;;;6142773;23;20195;-85
2021/01/25 09:58:34;;;;;;;9.93;7.07;;;3.00;99.90;;;;;;6143673;23;20395;-86
2021/01/25 10:01:00;;;;;;;9.20;7.40;;;3.20;99.90;;;;;;6139145;23;20168;-86
2021/01/25 10:03:26;;;;;;;8.50;7.70;;;3.40;99.90;;;;;;6142771;23;20461;-85
2021/01/25 10:05:52;;;;;;;8.10;7.40;;;3.30;99.90;;;;;;6143846;23;20219;-85
2021/01/25 10:15:45;;;;;;;7.43;6.60;;;3.00;99.90;;;;;;6170948;23;20956;-86
2021/01/25 10:18:46;;;;;;;7.33;6.63;;;3.20;99.90;;;;;;6143151;23;20485;-85
2021/01/25 10:21:45;;;;;;;8.23;6.80;;;3.50;99.90;;;;;;6143643;23;20462;-85
2021/01/25 10:24:45;;;;;;;7.33;6.30;;;3.60;99.90;;;;;;6144332;23;20792;-85
2021/01/25 10:27:11;;;;;;;6.10;5.60;;;3.60;99.90;;;;;;6143561;23;20403;-86
2021/01/25 10:29:46;;;;;;;6.40;5.80;;;3.60;99.90;;;;;;6144355;23;20401;-85
2021/01/25 10:32:46;;;;;;;6.10;5.53;;;3.70;99.90;;;;;;6144732;23;20733;-85
2021/01/25 10:35:46;;;;;;;8.90;6.10;;;3.90;99.90;;;;;;6144090;23;20470;-86
2021/01/25 10:38:47;;;;;;;8.27;5.87;;;3.70;99.90;;;;;;6144225;23;20512;-86
2021/01/25 10:41:13;;;;;;;7.43;6.50;;;3.40;99.90;;;;;;6145731;23;20878;-85
2021/01/25 10:43:45;;;;;;;7.30;6.07;;;3.60;99.90;;;;;;6139843;23;20383;-86
2021/01/25 10:46:12;;;;;;;6.20;5.50;;;3.50;99.90;;;;;;6142281;23;20274;-85
2021/01/25 10:48:46;;;;;;;6.00;5.40;;;3.40;99.90;;;;;;6143653;23;20388;-85
2021/01/25 10:51:46;;;;;;;7.40;6.70;;;3.40;99.90;;;;;;6143688;23;20476;-86
2021/01/25 10:54:46;;;;;;;7.27;5.87;;;3.50;99.90;;;;;;6143590;23;20502;-88
2021/01/25 10:57:46;;;;;;;6.60;5.90;;;3.50;99.90;;;;;;6143488;23;20400;-87
2021/01/25 11:00:45;;;;;;;7.50;6.20;;;3.30;99.90;;;;;;6143620;23;20411;-88
2021/01/25 11:03:11;;;;;;;7.50;6.67;;;3.30;99.90;;;;;;6143298;23;20404;-85
2021/01/25 11:05:46;;;;;;;6.47;5.73;;;3.30;99.90;;;;;;6142826;23;20402;-87
2021/01/25 11:08:12;;;;;;;5.37;4.70;;;3.20;99.90;;;;;;6143068;23;20277;-86
2021/01/25 11:10:47;;;;;;;8.00;5.17;;;3.20;99.90;;;;;;6142914;23;20419;-86
2021/01/25 11:13:44;;;;;;;6.80;5.30;;;3.10;99.90;;;;;;6142826;23;20178;-84
2021/01/25 11:16:46;;;;;;;3.83;3.43;;;3.20;99.90;;;;;;6143726;23;20418;-85
2021/01/25 11:19:46;;;;;;;4.57;4.17;;;3.30;99.90;;;;;;6143154;23;20906;-87
2021/01/25 11:22:46;;;;;;;5.73;3.90;;;2.90;99.90;;;;;;6143066;23;20470;-86
2021/01/25 11:25:46;;;;;;;6.30;4.40;;;2.90;99.90;;;;;;6139486;23;20411;-88
2021/01/25 11:28:46;;;;;;;5.50;4.63;;;3.10;99.90;;;;;;6143486;23;20411;-88
2021/01/25 11:31:46;;;;;;;4.73;4.33;;;3.20;99.90;;;;;;6146363;23;20415;-88
2021/01/25 11:34:46;;;;;;;7.43;3.90;;;3.40;99.90;;;;;;6143129;23;20431;-88
2021/01/25 11:37:12;;;;;;;4.97;4.50;;;3.80;99.90;;;;;;6145790;23;20896;-88
2021/01/25 11:39:58;;;;;;;5.10;4.60;;;3.90;99.90;;;;;;6146487;23;20422;-88
2021/01/25 11:42:46;;;;;;;4.90;4.40;;;3.90;99.90;;;;;;6143373;23;20596;-87
2021/01/25 11:45:50;;;;;;;5.83;5.23;;;4.30;99.90;;;;;;6144257;23;20811;-86
2021/01/25 11:48:17;;;;;;;6.80;6.10;;;4.20;99.90;;;;;;6143303;23;20399;-86
2021/01/25 11:50:47;;;;;;;8.00;7.20;;;4.10;99.90;;;;;;6142742;23;20401;-86
2021/01/25 11:53:47;;;;;;;8.90;7.40;;;4.10;99.90;;;;;;6143267;23;20415;-85
2021/01/25 11:56:46;;;;;;;7.80;6.27;;;4.20;99.90;;;;;;6143782;23;20502;-85
2021/01/25 11:59:12;;;;;;;8.63;7.00;;;4.30;99.90;;;;;;6141816;23;20411;-87
2021/01/25 12:01:44;;;;;;;7.10;6.40;;;4.20;99.90;;;;;;6142887;23;20438;-86
2021/01/25 12:04:44;;;;;;;7.70;7.00;;;4.10;99.90;;;;;;6143896;23;20412;-84
2021/01/25 12:07:45;;;;;;;8.20;7.40;;;4.40;99.90;;;;;;6140933;23;20435;-85
2021/01/25 12:10:45;;;;;;;7.93;6.97;;;4.30;99.90;;;;;;6141268;23;20803;-86
2021/01/25 12:13:45;;;;;;;8.23;7.43;;;4.20;99.90;;;;;;6141801;23;20773;-85
2021/01/25 12:16:14;;;;;;;9.20;7.90;;;4.30;99.90;;;;;;6142540;23;20787;-86
2021/01/25 12:18:46;;;;;;;7.73;6.80;;;4.00;99.90;;;;;;6142799;23;20403;-85
2021/01/25 12:23:57;;;;;;;8.97;8.07;;;3.70;99.90;;;;;;6170289;23;20478;-86
2021/01/25 12:26:45;;;;;;;8.67;7.17;;;3.80;99.90;;;;;;6143816;23;20794;-86
2021/01/25 12:29:45;;;;;;;6.63;6.03;;;3.70;99.90;;;;;;6143465;23;20231;-86
2021/01/25 12:32:44;;;;;;;12.20;5.80;;;3.80;99.90;;;;;;6143492;23;20427;-86
2021/01/25 12:35:44;;;;;;;7.00;6.30;;;3.80;99.90;;;;;;6144209;23;20730;-85
2021/01/25 12:38:45;;;;;;;7.13;6.37;;;3.60;99.90;;;;;;6143305;23;20458;-85
2021/01/25 12:41:10;;;;;;;6.17;5.57;;;3.60;99.90;;;;;;6141740;23;20485;-86
2021/01/25 12:43:45;;;;;;;6.23;5.67;;;3.60;99.90;;;;;;6143107;23;20478;-86
2021/01/25 12:46:11;;;;;;;6.40;5.80;;;3.60;99.90;;;;;;6140422;23;20221;-86
2021/01/25 12:48:46;;;;;;;6.20;5.60;;;3.50;99.90;;;;;;6142625;23;20385;-86
2021/01/25 12:51:46;;;;;;;6.93;6.00;;;3.40;99.90;;;;;;6137987;23;20167;-86
2021/01/25 12:54:46;;;;;;;6.37;5.77;;;3.50;99.90;;;;;;6142035;23;20435;-86
2021/01/25 12:57:47;;;;;;;6.97;5.53;;;3.40;99.90;;;;;;6142226;23;20400;-87
2021/01/25 13:00:46;;;;;;;5.60;4.80;;;3.80;99.90;;;;;;6141597;23;20415;-87
2021/01/25 13:03:47;;;;;;;5.60;5.10;;;4.30;99.90;;;;;;6142287;23;20454;-86
2021/01/25 13:06:44;;;;;;;6.60;4.93;;;4.50;99.90;;;;;;6142416;23;20410;-85
2021/01/25 13:09:44;;;;;;;7.23;4.40;;;4.50;99.90;;;;;;6142256;23;20395;-85
2021/01/25 13:12:47;;;;;;;6.10;5.30;;;5.20;99.90;;;;;;6142035;23;20483;-85
2021/01/25 13:15:46;;;;;;;4.67;4.27;;;5.30;99.90;;;;;;6141724;23;20450;-87
2021/01/25 13:18:46;;;;;;;3.87;3.53;;;5.00;99.90;;;;;;6142610;23;20412;-88
2021/01/25 13:21:13;;;;;;;5.50;3.70;;;5.10;99.90;;;;;;6140401;23;20853;-88
2021/01/25 13:23:39;;;;;;;3.40;3.10;;;5.00;99.90;;;;;;6142264;23;20396;-90
2021/01/25 13:26:05;;;;;;;3.63;3.10;;;5.10;99.90;;;;;;6142139;23;20475;-87
2021/01/25 13:28:46;;;;;;;4.20;3.80;;;5.00;99.90;;;;;;6141086;23;20295;-89
2021/01/25 13:31:48;;;;;;;3.93;3.10;;;5.10;99.90;;;;;;6142274;23;20169;-90